Data for 04/24/2005

Time Sea-Level Adjusted Pressure Absolute Pressure Temperature Relative Humidity Dew Point   
(mb) (inHg) (mb) (inHg) (C) (F) (%) (C) (F)
00:05 1016 30 845 24.95 8.3 46.9 76 4.3 39.7
00:10 1016 30 845 24.95 8.3 47 75 4.3 39.7
00:15 1016 30 845 24.95 8.3 46.9 75 4.2 39.5
00:20 1016 30 845 24.95 8.2 46.8 75 4.1 39.3
00:25 1016 30 845 24.95 8.2 46.8 74 3.8 38.9
00:30 1016 30 845 24.95 8.3 46.9 74 3.9 39
00:35 1016 30 845 24.95 8.3 46.9 73 3.8 38.8
00:40 1016 30 846 24.98 8.3 47 73 3.7 38.7
00:45 1016 30 846 24.98 8.4 47.1 74 4 39.2
00:50 1017 30.03 846 24.98 7.6 45.8 74 3.4 38.1
00:55 1017 30.03 846 24.98 7.4 45.4 76 3.5 38.2
01:00 1017 30.03 846 24.98 7.4 45.3 76 3.5 38.3
01:05 1017 30.03 846 24.98 7.4 45.4 77 3.6 38.5
01:10 1016 30 846 24.98 7.5 45.5 75 3.5 38.2
01:15 1016 30 846 24.98 7.7 45.9 74 3.4 38
01:20 1016 30 846 24.98 7.8 46 73 3.3 38
01:25 1016 30 845 24.95 7.9 46.3 72 3.2 37.7
01:30 1016 30 845 24.95 7.9 46.2 72 3.3 37.9
01:35 1016 30 845 24.95 7.8 46 73 3.2 37.8
01:40 1016 30 845 24.95 7.7 45.8 73 3.2 37.8
01:45 1016 30 845 24.95 7.5 45.4 74 3.2 37.8
01:50 1016 30 845 24.95 7.1 44.8 76 3.2 37.8
01:55 1016 30 845 24.95 6.8 44.3 78 3.2 37.8
02:00 1016 30 845 24.95 6.7 44 78 3 37.5
02:05 1016 30 845 24.95 6.5 43.7 78 3 37.4
02:10 1016 30 845 24.95 6.4 43.5 79 2.9 37.3
02:15 1016 30 845 24.95 6.3 43.3 79 2.9 37.3
02:20 1016 30 845 24.95 6.3 43.4 79 2.9 37.2
02:25 1016 30 845 24.95 6.4 43.5 79 2.9 37.3
02:30 1016 30 845 24.95 6.4 43.6 79 3 37.4
02:35 1016 30 845 24.95 6.3 43.4 79 3 37.3
02:40 1016 30 845 24.95 6.4 43.6 78 2.8 37.1
02:45 1016 30 845 24.95 6.4 43.5 79 3 37.4
02:50 1016 30 845 24.95 6.1 43 78 2.6 36.7
02:55 1016 30 845 24.95 6 42.7 78 2.5 36.4
03:00 1016 30 845 24.95 5.9 42.6 79 2.5 36.5
03:05 1016 30 845 24.95 6 42.8 78 2.5 36.5
03:10 1016 30 845 24.95 6.1 43.1 77 2.4 36.4
03:15 1016 30 845 24.95 6.2 43.2 76 2.4 36.4
03:20 1016 30 845 24.95 5.9 42.6 76 2.1 35.7
03:25 1016 30 845 24.95 5.7 42.3 75 1.7 35.1
03:30 1016 30 845 24.95 5.6 42.1 76 1.7 35
03:35 1016 30 845 24.95 5.7 42.2 75 1.7 35
03:40 1016 30 845 24.95 6 42.8 74 1.6 34.9
03:45 1016 30 845 24.95 5.8 42.4 75 1.6 34.9
03:50 1016 30 845 24.95 5.6 42.1 74 1.4 34.5
03:55 1016 30 845 24.95 5.7 42.2 74 1.3 34.4
04:00 1016 30 845 24.95 5.9 42.6 73 1.5 34.6
04:05 1016 30 845 24.95 5.7 42.3 71 0.9 33.7
04:10 1016 30 845 24.95 5.7 42.2 71 0.9 33.6
04:15 1016 30 845 24.95 5.9 42.7 70 0.9 33.7
04:20 1016 30 845 24.95 5.9 42.6 72 1.3 34.4
04:25 1016 30 845 24.95 5.7 42.2 74 1.5 34.6
04:30 1016 30 845 24.95 5.5 42 73 1.1 33.9
04:35 1016 30 845 24.95 5.5 41.9 72 0.9 33.6
04:40 1016 30 845 24.95 5.5 41.9 74 1.3 34.3
04:45 1016 30 845 24.95 5.2 41.3 75 1.1 33.9
04:50 1016 30 845 24.95 5.2 41.4 73 0.7 33.3
04:55 1016 30 845 24.95 5 40.9 74 0.7 33.3
05:00 1016 30 845 24.95 5.1 41.2 74 0.9 33.6
05:05 1016 30 845 24.95 5.3 41.5 76 1.4 34.5
05:10 1016 30 845 24.95 5.1 41.2 77 1.5 34.6
05:15 1016 30 845 24.95 4.9 40.8 79 1.5 34.7
05:20 1016 30 845 24.95 4.8 40.6 80 1.6 34.9
05:25 1015 29.97 845 24.95 4.9 40.8 79 1.5 34.8
05:30 1015 29.97 845 24.95 4.8 40.6 80 1.6 34.9
05:35 1015 29.97 845 24.95 5 41 81 2.1 35.7
05:40 1015 29.97 844 24.92 5.2 41.4 80 2.1 35.8
05:45 1015 29.97 844 24.92 5.2 41.3 82 2.3 36.2
05:50 1015 29.97 844 24.92 5 41 81 2 35.6
05:55 1015 29.97 844 24.92 4.8 40.7 80 1.6 34.9
06:00 1015 29.97 844 24.92 4.4 39.8 80 1.3 34.3
06:05 1015 29.97 845 24.95 3.9 39 82 1.1 34
06:10 1015 29.97 845 24.95 3.6 38.6 83 1 33.7
06:15 1015 29.97 845 24.95 3.8 38.8 82 0.9 33.6
06:20 1015 29.97 845 24.95 4.2 39.5 78 0.6 33
06:25 1015 29.97 845 24.95 4.4 39.8 75 0.3 32.5
06:30 1015 29.97 844 24.92 4.5 40.2 75 0.5 33
06:35 1015 29.97 844 24.92 4.5 40.2 76 0.7 33.2
06:40 1015 29.97 845 24.95 4.3 39.8 77 0.8 33.4
06:45 1015 29.97 845 24.95 4.2 39.5 77 0.5 32.8
06:50 1015 29.97 844 24.92 3.9 39 81 0.9 33.5
06:55 1015 29.97 844 24.92 3.6 38.5 83 1 33.8
07:00 1015 29.97 844 24.92 4.1 39.5 83 1.5 34.6
07:05 1015 29.97 844 24.92 4.6 40.2 82 1.8 35.3
07:10 1015 29.97 844 24.92 4.7 40.4 82 1.8 35.2
07:15 1015 29.97 844 24.92 4.9 40.8 81 1.9 35.5
07:20 1015 29.97 844 24.92 5.1 41.1 81 2.1 35.8
07:25 1015 29.97 844 24.92 5.5 41.9 81 2.4 36.4
07:30 1015 29.97 844 24.92 5.9 42.6 80 2.6 36.8
07:35 1015 29.97 844 24.92 6.3 43.4 78 2.8 37.1
07:40 1015 29.97 844 24.92 6.7 44.1 75 2.7 36.9
07:45 1015 29.97 844 24.92 7.2 44.9 73 2.7 36.9
07:50 1015 29.97 844 24.92 7.6 45.7 74 3.3 37.9
07:55 1015 29.97 844 24.92 8.1 46.6 72 3.4 38.2
08:00 1015 29.97 844 24.92 8.4 47.1 70 3.4 38
08:05 1015 29.97 844 24.92 8.4 47 72 3.5 38.3
08:10 1015 29.97 844 24.92 8.5 47.2 71 3.6 38.4
08:15 1015 29.97 844 24.92 8.8 47.9 70 3.8 38.8
08:20 1015 29.97 844 24.92 9.1 48.3 69 3.7 38.6
08:25 1015 29.97 844 24.92 9.2 48.5 68 3.5 38.3
08:30 1015 29.97 844 24.92 9.3 48.7 68 3.7 38.6
08:35 1015 29.97 844 24.92 9.4 48.8 67 3.7 38.6
08:40 1015 29.97 844 24.92 9.4 48.9 67 3.6 38.4
08:45 1015 29.97 844 24.92 9.5 49 66 3.4 38.1
08:50 1015 29.97 844 24.92 9.6 49.3 65 3.5 38.3
08:55 1015 29.97 844 24.92 9.8 49.7 65 3.6 38.6
09:00 1015 29.97 844 24.92 9.8 49.7 65 3.6 38.4
09:05 1015 29.97 844 24.92 9.9 49.8 65 3.6 38.5
09:10 1015 29.97 844 24.92 9.6 49.3 66 3.6 38.6
09:15 1015 29.97 844 24.92 9.5 49.2 66 3.6 38.4
09:20 1015 29.97 844 24.92 10.2 50.4 64 3.7 38.6
09:25 1015 29.97 844 24.92 11.1 51.9 61 3.8 38.8
09:30 1015 29.97 844 24.92 11.7 53 60 4.2 39.6
09:35 1015 29.97 844 24.92 10.8 51.5 66 4.8 40.6
09:40 1015 29.97 844 24.92 9.8 49.7 67 4.1 39.4
09:45 1015 29.97 844 24.92 9.9 49.7 68 4.2 39.6
09:50 1015 29.97 844 24.92 9.3 48.7 69 3.8 38.9
09:55 1015 29.97 844 24.92 9.7 49.5 66 3.7 38.6
10:00 1015 29.97 844 24.92 10.6 51.1 65 4.2 39.6
10:05 1015 29.97 844 24.92 10.7 51.2 65 4.4 39.9
10:10 1015 29.97 844 24.92 11.2 52.1 63 4.4 39.8
10:15 1015 29.97 844 24.92 11.8 53.2 59 4.1 39.4
10:20 1015 29.97 844 24.92 11.9 53.3 61 4.7 40.4
10:25 1015 29.97 844 24.92 11.9 53.5 59 4.3 39.7
10:30 1015 29.97 844 24.92 12.4 54.2 57 4.2 39.5
10:35 1015 29.97 844 24.92 12.7 54.9 59 5 40.9
10:40 1015 29.97 844 24.92 12.7 54.9 56 4.3 39.7
10:45 1015 29.97 844 24.92 13.3 55.9 54 4.2 39.6
10:50 1015 29.97 844 24.92 14.2 57.5 52 4.5 40.1
10:55 1015 29.97 844 24.92 14.4 57.9 49 4 39.3
11:00 1015 29.97 844 24.92 14 57.2 48 3.3 37.9
11:05 1015 29.97 844 24.92 14 57.1 49 3.6 38.6
11:10 1015 29.97 844 24.92 14.1 57.3 48 3.2 37.8
11:15 1015 29.97 844 24.92 13.8 56.9 48 3 37.4
11:20 1015 29.97 844 24.92 13.7 56.7 49 3.3 38
11:25 1015 29.97 844 24.92 14.2 57.5 47 3.1 37.6
11:30 1015 29.97 844 24.92 13.8 56.8 49 3.4 38.1
11:35 1014 29.94 844 24.92 13.6 56.4 50 3.3 37.9
11:40 1015 29.97 844 24.92 13.9 57 48 3.1 37.6
11:45 1015 29.97 844 24.92 14.4 57.9 47 3.4 38.2
11:50 1014 29.94 844 24.92 14.4 57.9 45 2.7 36.9
11:55 1015 29.97 844 24.92 14.7 58.5 44 2.8 37.1
12:00 1015 29.97 844 24.92 14.5 58 47 3.4 38.1
12:05 1014 29.94 844 24.92 14.6 58.3 43 2.2 36
12:10 1015 29.97 844 24.92 14.7 58.4 42 1.9 35.5
12:15 1014 29.94 844 24.92 14.7 58.4 41 1.8 35.3
12:20 1014 29.94 844 24.92 14.6 58.3 42 1.8 35.2
12:25 1014 29.94 844 24.92 14.6 58.3 41 1.7 35.1
12:30 1014 29.94 844 24.92 14.4 58 43 2.2 35.9
12:35 1014 29.94 843 24.89 14.6 58.3 42 2.1 35.8
12:40 1014 29.94 844 24.92 14.7 58.5 43 2.2 36
12:45 1014 29.94 843 24.89 15 59.1 40 1.8 35.2
12:50 1014 29.94 843 24.89 14.8 58.7 42 2 35.6
12:55 1014 29.94 843 24.89 15 58.9 41 2.1 35.7
13:00 1014 29.94 843 24.89 15.2 59.3 39 1.5 34.8
13:05 1014 29.94 843 24.89 15.4 59.7 39 1.6 34.9
13:10 1014 29.94 843 24.89 15.7 60.2 39 1.8 35.2
13:15 1014 29.94 843 24.89 15.1 59.2 43 2.7 36.9
13:20 1014 29.94 843 24.89 14.8 58.7 41 1.9 35.5
13:25 1014 29.94 843 24.89 14.9 58.9 44 3 37.3
13:30 1014 29.94 843 24.89 15.6 60.1 41 2.5 36.5
13:35 1014 29.94 843 24.89 15.6 60 41 2.6 36.8
13:40 1014 29.94 843 24.89 15.6 60.1 41 2.6 36.7
13:45 1014 29.94 843 24.89 15.5 59.9 39 1.8 35.3
13:50 1014 29.94 843 24.89 15.4 59.8 38 1.5 34.6
13:55 1014 29.94 843 24.89 15.4 59.6 35 0.1 32.2
14:00 1014 29.94 843 24.89 15.4 59.6 36 0.6 33.1
14:05 1013 29.91 843 24.89 15.4 59.8 35 0.1 32.2
14:10 1014 29.94 843 24.89 15.5 59.9 36 0.5 32.8
14:15 1014 29.94 843 24.89 15.6 60.1 33 -0.5 31.2
14:20 1014 29.94 843 24.89 15.7 60.3 31 -1.4 29.5
14:25 1014 29.94 843 24.89 15.7 60.3 32 -0.8 30.5
14:30 1014 29.94 843 24.89 15.7 60.3 34 0.1 32.1
14:35 1013 29.91 843 24.89 16 60.7 33 -0 32
14:40 1014 29.94 843 24.89 15.7 60.3 35 0.3 32.5
14:45 1014 29.94 843 24.89 15.4 59.7 38 1.2 34.1
14:50 1014 29.94 843 24.89 15.3 59.5 37 0.6 33.2
14:55 1014 29.94 843 24.89 15.2 59.4 38 1 33.8
15:00 1014 29.94 843 24.89 15.2 59.4 37 0.9 33.6
15:05 1014 29.94 843 24.89 15.1 59.1 38 1.1 34
15:10 1014 29.94 843 24.89 15.1 59.2 37 0.6 33.1
15:15 1014 29.94 843 24.89 15.1 59.2 37 0.8 33.4
15:20 1014 29.94 843 24.89 14.9 58.8 36 -0 32
15:25 1014 29.94 843 24.89 15 59 36 0.2 32.4
15:30 1014 29.94 843 24.89 15 58.9 38 1 33.8
15:35 1013 29.91 843 24.89 14.8 58.7 39 0.9 33.7
15:40 1014 29.94 843 24.89 15 59 38 1 33.8
15:45 1014 29.94 843 24.89 15.1 59.1 38 1.1 33.9
15:50 1014 29.94 843 24.89 15.2 59.3 36 0.2 32.3
15:55 1014 29.94 843 24.89 14.8 58.6 37 0.4 32.8
16:00 1014 29.94 843 24.89 15.1 59.1 40 1.5 34.7
16:05 1013 29.91 843 24.89 15.2 59.3 36 0.1 32.2
16:10 1013 29.91 843 24.89 15.3 59.5 37 0.8 33.4
16:15 1013 29.91 843 24.89 15.2 59.4 36 0.3 32.5
16:20 1013 29.91 843 24.89 15.4 59.7 40 1.9 35.5
16:25 1013 29.91 843 24.89 15.4 59.7 38 1.3 34.3
16:30 1013 29.91 843 24.89 15.3 59.5 38 1.2 34.1
16:35 1013 29.91 843 24.89 15.4 59.6 39 1.7 35.1
16:40 1013 29.91 843 24.89 15.4 59.8 41 2.2 36
16:45 1013 29.91 842 24.86 15.3 59.5 37 0.8 33.5
16:50 1013 29.91 843 24.89 15 58.9 40 1.7 35.1
16:55 1013 29.91 843 24.89 15.1 59.2 40 1.9 35.4
17:00 1013 29.91 843 24.89 15.1 59.1 41 1.8 35.3
17:05 1013 29.91 843 24.89 15 58.9 40 1.6 34.9
17:10 1013 29.91 843 24.89 14.8 58.6 40 1.5 34.7
17:15 1013 29.91 843 24.89 14.8 58.6 42 2.1 35.8
17:20 1013 29.91 843 24.89 15.2 59.4 42 2.4 36.3
17:25 1013 29.91 843 24.89 15.1 59.2 40 1.6 34.9
17:30 1013 29.91 843 24.89 14.8 58.6 42 2 35.7
17:35 1013 29.91 843 24.89 15 59 39 1.3 34.3
17:40 1013 29.91 843 24.89 14.9 58.8 38 0.9 33.6
17:45 1013 29.91 843 24.89 14.9 58.8 38 0.9 33.6
17:50 1014 29.94 843 24.89 14.9 58.9 35 -0.3 31.4
17:55 1014 29.94 843 24.89 14.7 58.5 39 1.1 33.9
18:00 1014 29.94 843 24.89 14.7 58.4 38 0.7 33.3
18:05 1014 29.94 843 24.89 14.7 58.5 38 0.7 33.3
18:10 1014 29.94 843 24.89 14.5 58.1 37 0 32.1
18:15 1014 29.94 843 24.89 14.3 57.7 41 1.3 34.3
18:20 1014 29.94 843 24.89 14.2 57.6 40 1 33.9
18:25 1014 29.94 843 24.89 14.3 57.7 39 0.5 32.9
18:30 1014 29.94 843 24.89 14.1 57.5 40 0.8 33.5
18:35 1014 29.94 843 24.89 14.1 57.4 40 0.6 33.2
18:40 1014 29.94 843 24.89 14.1 57.4 41 1.1 34
18:45 1014 29.94 843 24.89 13.9 57.1 42 1.2 34.2
18:50 1014 29.94 843 24.89 13.8 56.9 39 0 32.1
18:55 1014 29.94 843 24.89 13.7 56.6 42 0.9 33.7
19:00 1014 29.94 843 24.89 13.5 56.4 43 1.1 34
19:05 1014 29.94 843 24.89 13.6 56.5 41 0.8 33.4
19:10 1014 29.94 843 24.89 13.5 56.3 41 0.7 33.2
19:15 1014 29.94 843 24.89 13.3 56 42 0.9 33.7
19:20 1014 29.94 843 24.89 13.3 55.9 43 1.2 34.1
19:25 1014 29.94 843 24.89 13.2 55.7 43 0.9 33.6
19:30 1014 29.94 843 24.89 13.1 55.5 43 0.8 33.5
19:35 1014 29.94 843 24.89 13 55.5 43 0.9 33.5
19:40 1014 29.94 843 24.89 12.9 55.2 43 0.5 33
19:45 1014 29.94 843 24.89 12.8 55.1 42 0.4 32.7
19:50 1014 29.94 843 24.89 12.7 54.9 42 0.2 32.4
19:55 1014 29.94 844 24.92 12.7 54.8 43 0.4 32.7
20:00 1014 29.94 844 24.92 12.6 54.7 43 0.4 32.7
20:05 1014 29.94 844 24.92 12.5 54.4 44 0.6 33
20:10 1015 29.97 844 24.92 12.3 54.1 45 0.7 33.3
20:15 1015 29.97 844 24.92 12.2 53.9 45 0.8 33.4
20:20 1015 29.97 844 24.92 12.1 53.8 46 0.8 33.4
20:25 1015 29.97 844 24.92 12 53.6 47 1 33.8
20:30 1015 29.97 844 24.92 11.9 53.3 47 1 33.9
20:35 1015 29.97 844 24.92 11.6 52.9 48 1 33.7
20:40 1015 29.97 844 24.92 11.5 52.7 47 0.6 33.1
20:45 1015 29.97 844 24.92 11.5 52.7 47 0.6 33.1
20:50 1015 29.97 844 24.92 11.6 52.8 47 0.7 33.2
20:55 1015 29.97 844 24.92 11.5 52.6 48 0.8 33.5
21:00 1015 29.97 844 24.92 11.4 52.4 47 0.6 33.1
21:05 1015 29.97 844 24.92 11.4 52.5 47 0.6 33
21:10 1015 29.97 844 24.92 11.4 52.4 47 0.6 33.1
21:15 1015 29.97 844 24.92 11.3 52.3 46 0.2 32.4
21:20 1015 29.97 845 24.95 11.2 52.2 45 -0.1 31.8
21:25 1015 29.97 845 24.95 11.3 52.3 45 -0.1 31.9
21:30 1015 29.97 845 24.95 11.2 52.1 46 -0 32
21:35 1015 29.97 845 24.95 11.1 51.9 46 -0 31.9
21:40 1015 29.97 845 24.95 11 51.8 47 0 32.1
21:45 1016 30 845 24.95 10.9 51.7 47 0.1 32.2
21:50 1016 30 845 24.95 10.8 51.4 47 0.1 32.2
21:55 1016 30 845 24.95 10.7 51.2 47 0 32.1
22:00 1016 30 845 24.95 10.8 51.4 47 -0 31.9
22:05 1016 30 845 24.95 10.8 51.5 46 -0.2 31.6
22:10 1016 30 845 24.95 10.8 51.4 46 -0.3 31.5
22:15 1016 30 845 24.95 10.9 51.6 45 -0.5 31
22:20 1016 30 845 24.95 10.8 51.4 46 -0.2 31.6
22:25 1016 30 845 24.95 10.7 51.2 48 0.1 32.1
22:30 1016 30 845 24.95 10.5 51 48 0.1 32.2
22:35 1016 30 845 24.95 10.5 50.8 49 0.1 32.2
22:40 1016 30 845 24.95 10.4 50.7 49 0.3 32.5
22:45 1016 30 845 24.95 10.2 50.4 51 0.5 32.9
22:50 1016 30 845 24.95 10 50 51 0.4 32.7
22:55 1016 30 845 24.95 9.9 49.7 52 0.5 33
23:00 1016 30 845 24.95 9.6 49.3 53 0.5 32.9
23:05 1016 30 845 24.95 9.4 48.9 52 0.1 32.3
23:10 1016 30 845 24.95 9.3 48.7 52 -0.1 31.8
23:15 1016 30 845 24.95 9.1 48.4 52 -0.2 31.6
23:20 1016 30 845 24.95 9 48.3 52 -0.3 31.5
23:25 1016 30 845 24.95 9.2 48.5 51 -0.3 31.5
23:30 1016 30 845 24.95 9.4 48.9 51 -0.3 31.5
23:35 1016 30 845 24.95 9.4 48.9 51 -0.2 31.6
23:40 1016 30 845 24.95 9.3 48.7 49 -0.8 30.6
23:45 1016 30 845 24.95 9.4 48.9 50 -0.6 30.9
23:50 1016 30 845 24.95 9.3 48.8 50 -0.6 30.9
23:55 1016 30 845 24.95 9.3 48.8 50 -0.5 31.1
24:00 1016 30 845 24.95 9.1 48.5 51 -0.5 31.1